createdAt,value
2022-11-20T00:01:19.410Z,75.90
2022-11-20T00:03:46.787Z,74.90
2022-11-20T00:06:17.227Z,74.80
2022-11-20T00:08:45.103Z,74.80
2022-11-20T00:11:21.102Z,74.50
2022-11-20T00:13:50.367Z,74.50
2022-11-20T00:16:19.994Z,74.90
2022-11-20T00:18:47.954Z,74.60
2022-11-20T00:21:18.779Z,74.80
2022-11-20T00:23:46.372Z,75.00
2022-11-20T00:26:16.510Z,75.20
2022-11-20T00:28:45.479Z,75.50
2022-11-20T00:31:16.191Z,76.30
2022-11-20T00:33:44.547Z,76.70
2022-11-20T00:36:14.954Z,76.50
2022-11-20T00:38:43.016Z,76.70
2022-11-20T00:41:13.232Z,76.50
2022-11-20T00:43:40.930Z,76.00
2022-11-20T00:46:10.701Z,75.80
2022-11-20T00:48:37.957Z,75.10
2022-11-20T00:51:05.578Z,75.90
2022-11-20T00:53:32.927Z,75.90
2022-11-20T00:56:05.211Z,75.80
2022-11-20T00:58:36.951Z,75.90
2022-11-20T01:01:09.874Z,75.70
2022-11-20T01:03:39.867Z,75.50
2022-11-20T01:06:16.867Z,75.50
2022-11-20T01:08:45.509Z,74.60
2022-11-20T01:11:15.483Z,75.40
2022-11-20T01:13:43.288Z,75.10
2022-11-20T01:16:13.247Z,74.80
2022-11-20T01:18:43.406Z,75.10
2022-11-20T01:21:13.408Z,76.00
2022-11-20T01:23:42.320Z,76.40
2022-11-20T01:26:15.908Z,76.80
2022-11-20T01:28:44.010Z,77.00
2022-11-20T01:31:18.460Z,77.10
2022-11-20T01:33:47.848Z,77.40
2022-11-20T01:36:17.000Z,77.90
2022-11-20T01:38:44.692Z,77.80
2022-11-20T01:41:33.368Z,77.60
2022-11-20T01:44:01.718Z,77.80
2022-11-20T01:46:29.338Z,77.70
2022-11-20T01:49:20.235Z,77.90
2022-11-20T01:52:08.378Z,78.60
2022-11-20T01:54:40.807Z,78.70
2022-11-20T01:57:11.234Z,78.40
2022-11-20T01:59:46.058Z,77.50
2022-11-20T02:02:13.259Z,78.60
2022-11-20T02:04:40.667Z,78.80
2022-11-20T02:07:09.000Z,78.70
2022-11-20T02:09:36.200Z,79.00
2022-11-20T02:12:04.701Z,78.60
2022-11-20T02:14:31.999Z,78.40
2022-11-20T02:16:59.174Z,78.50
2022-11-20T02:19:30.729Z,78.10
2022-11-20T02:22:18.815Z,79.10
2022-11-20T02:24:47.111Z,79.00
2022-11-20T02:27:16.129Z,79.00
2022-11-20T02:30:01.232Z,79.20
2022-11-20T02:32:31.140Z,79.40
2022-11-20T02:34:58.416Z,79.30
2022-11-20T02:37:33.918Z,79.10
2022-11-20T02:40:01.051Z,78.80
2022-11-20T02:42:28.196Z,78.60
2022-11-20T02:44:55.339Z,78.90
2022-11-20T02:47:22.506Z,79.20
2022-11-20T02:49:49.687Z,78.70
2022-11-20T02:52:16.890Z,79.50
2022-11-20T02:54:44.074Z,79.50
2022-11-20T02:57:11.267Z,79.50
2022-11-20T02:59:38.468Z,79.70
2022-11-20T03:02:05.894Z,80.20
2022-11-20T03:04:33.054Z,80.50
2022-11-20T03:07:00.402Z,80.30
2022-11-20T03:09:27.582Z,80.40
2022-11-20T03:11:54.679Z,80.50
2022-11-20T03:14:21.944Z,80.50
2022-11-20T03:16:49.125Z,81.10
2022-11-20T03:19:16.313Z,81.30
2022-11-20T03:21:43.529Z,81.40
2022-11-20T03:24:10.796Z,81.50
2022-11-20T03:26:37.945Z,81.20
2022-11-20T03:29:05.823Z,81.00
2022-11-20T03:31:35.608Z,81.10
2022-11-20T03:34:03.595Z,81.00
2022-11-20T03:36:31.472Z,81.00
2022-11-20T03:38:58.730Z,80.80
2022-11-20T03:41:28.411Z,80.90
2022-11-20T03:44:04.116Z,81.20
2022-11-20T03:46:31.615Z,81.70
2022-11-20T03:48:58.923Z,82.10
2022-11-20T03:51:44.501Z,82.20
2022-11-20T03:54:11.798Z,82.30
2022-11-20T03:56:40.247Z,82.30
2022-11-20T03:59:07.498Z,82.10
2022-11-20T04:01:37.886Z,82.50
2022-11-20T04:04:05.543Z,82.70
2022-11-20T04:06:38.618Z,82.80
2022-11-20T04:09:07.133Z,83.00
2022-11-20T04:11:36.682Z,83.00
2022-11-20T04:14:06.837Z,83.00
2022-11-20T04:16:36.286Z,83.00
2022-11-20T04:19:05.802Z,83.20
2022-11-20T04:21:33.388Z,83.30
2022-11-20T04:24:00.568Z,83.50
2022-11-20T04:26:29.592Z,83.30
2022-11-20T04:28:57.911Z,83.30
2022-11-20T04:31:28.425Z,83.10
2022-11-20T04:33:55.925Z,83.20
2022-11-20T04:36:25.491Z,83.00
2022-11-20T04:38:57.101Z,82.90
2022-11-20T04:41:27.380Z,83.10
2022-11-20T04:44:05.955Z,83.00
2022-11-20T04:46:36.240Z,83.10
2022-11-20T04:49:03.638Z,83.10
2022-11-20T04:51:30.761Z,83.80
2022-11-20T04:53:57.922Z,84.10
2022-11-20T04:56:25.165Z,84.10
2022-11-20T04:58:52.552Z,84.00
2022-11-20T05:01:23.275Z,84.10
2022-11-20T05:03:51.068Z,84.30
2022-11-20T05:06:21.003Z,84.40
2022-11-20T05:08:48.675Z,84.30
2022-11-20T05:11:21.604Z,84.30
2022-11-20T05:13:50.213Z,84.10
2022-11-20T05:16:22.875Z,84.30
2022-11-20T05:18:51.299Z,83.50
2022-11-20T05:21:18.929Z,84.10
2022-11-20T05:23:46.848Z,83.90
2022-11-20T05:26:19.714Z,83.90
2022-11-20T05:28:47.859Z,83.80
2022-11-20T05:31:26.237Z,83.70
2022-11-20T05:33:55.915Z,83.70
2022-11-20T05:36:23.429Z,83.70
2022-11-20T05:38:51.360Z,83.70
2022-11-20T05:41:21.585Z,83.70
2022-11-20T05:43:51.795Z,83.80
2022-11-20T05:46:26.507Z,83.80
2022-11-20T05:48:56.396Z,83.20
2022-11-20T05:51:24.054Z,84.10
2022-11-20T05:53:51.217Z,84.20
2022-11-20T05:56:20.795Z,84.10
2022-11-20T05:58:48.789Z,84.50
2022-11-20T06:01:21.959Z,84.60
2022-11-20T06:03:51.313Z,84.60
2022-11-20T06:06:19.941Z,84.60
2022-11-20T06:08:47.682Z,84.90
2022-11-20T06:11:18.064Z,85.40
2022-11-20T06:13:46.277Z,85.60
2022-11-20T06:16:16.402Z,85.50
2022-11-20T06:18:43.578Z,85.40
2022-11-20T06:21:14.303Z,85.60
2022-11-20T06:23:42.597Z,85.70
2022-11-20T06:26:19.568Z,85.60
2022-11-20T06:28:47.127Z,85.50
2022-11-20T06:31:15.827Z,85.00
2022-11-20T06:33:43.874Z,84.60
2022-11-20T06:36:13.094Z,84.20
2022-11-20T06:38:40.862Z,84.00
2022-11-20T06:41:13.536Z,84.20
2022-11-20T06:43:41.048Z,84.10
2022-11-20T06:46:10.152Z,83.80
2022-11-20T06:48:37.439Z,84.50
2022-11-20T06:51:08.554Z,84.80
2022-11-20T06:53:36.508Z,85.00
2022-11-20T06:56:03.967Z,85.40
2022-11-20T06:58:33.919Z,85.90
2022-11-20T07:01:07.144Z,86.00
2022-11-20T07:03:34.940Z,86.20
2022-11-20T07:06:02.645Z,86.20
2022-11-20T07:08:30.437Z,85.20
2022-11-20T07:11:15.669Z,86.00
2022-11-20T07:13:42.796Z,85.80
2022-11-20T07:16:10.216Z,85.70
2022-11-20T07:18:37.652Z,85.60
2022-11-20T07:21:08.385Z,85.50
2022-11-20T07:23:35.992Z,85.30
2022-11-20T07:26:07.624Z,85.10
2022-11-20T07:28:35.644Z,84.90
2022-11-20T07:31:03.359Z,84.60
2022-11-20T07:33:30.615Z,84.50
2022-11-20T07:36:00.281Z,84.70
2022-11-20T07:38:27.429Z,84.30
2022-11-20T07:40:58.564Z,84.20
2022-11-20T07:43:26.179Z,83.60
2022-11-20T07:45:55.694Z,83.40
2022-11-20T07:48:23.148Z,83.70
2022-11-20T07:50:50.261Z,83.70
2022-11-20T07:53:21.622Z,84.30
2022-11-20T07:55:49.135Z,83.30
2022-11-20T07:58:16.294Z,83.00
2022-11-20T08:00:43.649Z,83.50
2022-11-20T08:03:10.929Z,82.90
2022-11-20T08:05:38.272Z,82.80
2022-11-20T08:08:05.589Z,82.90
2022-11-20T08:10:32.758Z,83.00
2022-11-20T08:13:18.331Z,83.40
2022-11-20T08:15:51.297Z,83.60
2022-11-20T08:18:34.125Z,83.10
2022-11-20T08:21:05.249Z,83.30
2022-11-20T08:23:32.482Z,83.10
2022-11-20T08:25:59.599Z,82.50
2022-11-20T08:28:26.857Z,81.30
2022-11-20T08:31:00.169Z,81.00
2022-11-20T08:33:27.641Z,80.60
2022-11-20T08:35:54.825Z,80.50
2022-11-20T08:38:22.018Z,80.80
2022-11-20T08:41:09.123Z,80.30
2022-11-20T08:43:36.225Z,79.70
2022-11-20T08:46:03.404Z,79.60
2022-11-20T08:48:30.665Z,78.10
2022-11-20T08:51:00.381Z,78.80
2022-11-20T08:53:28.418Z,79.20
2022-11-20T08:55:58.395Z,79.10
2022-11-20T08:58:27.018Z,78.50
2022-11-20T09:00:54.702Z,78.40
2022-11-20T09:03:21.971Z,78.00
2022-11-20T09:05:49.202Z,77.70
2022-11-20T09:08:16.461Z,78.20
2022-11-20T09:10:43.659Z,77.80
2022-11-20T09:13:10.857Z,78.30
2022-11-20T09:15:37.978Z,78.00
2022-11-20T09:18:05.935Z,78.00
2022-11-20T09:20:33.117Z,78.00
2022-11-20T09:23:00.308Z,78.00
2022-11-20T09:25:27.928Z,77.80
2022-11-20T09:27:59.200Z,75.30
2022-11-20T09:30:27.736Z,76.10
2022-11-20T09:32:54.947Z,76.00
2022-11-20T09:35:22.462Z,75.40
2022-11-20T09:37:49.788Z,74.40
2022-11-20T09:40:24.750Z,73.70
2022-11-20T09:43:26.507Z,73.50
2022-11-20T09:46:21.521Z,73.50
2022-11-20T09:48:54.090Z,71.80
2022-11-20T09:51:54.119Z,72.40
2022-11-20T09:54:23.718Z,72.40
2022-11-20T09:56:55.375Z,72.30
2022-11-20T09:59:37.785Z,72.40
2022-11-20T10:02:32.818Z,72.60
2022-11-20T10:05:02.923Z,72.30
2022-11-20T10:07:45.433Z,72.50
2022-11-20T10:10:34.220Z,72.10
2022-11-20T10:13:10.031Z,69.70
2022-11-20T10:15:54.234Z,48.90
2022-11-20T10:18:51.013Z,44.90
2022-11-20T10:21:45.780Z,46.10
2022-11-20T10:24:37.138Z,48.20
2022-11-20T10:27:31.491Z,51.00
2022-11-20T10:30:11.702Z,55.10
2022-11-20T10:33:00.651Z,61.50
2022-11-20T10:35:41.381Z,62.60
2022-11-20T10:38:18.111Z,64.90
2022-11-20T10:40:55.068Z,66.60
2022-11-20T10:43:40.592Z,68.20
2022-11-20T10:46:18.037Z,69.30
2022-11-20T10:48:46.840Z,70.20
2022-11-20T10:51:25.871Z,70.90
2022-11-20T10:53:58.835Z,71.60
2022-11-20T10:56:31.448Z,72.40
2022-11-20T10:59:06.023Z,72.50
2022-11-20T11:01:42.608Z,72.30
2022-11-20T11:04:39.128Z,72.40
2022-11-20T11:07:18.636Z,72.30
2022-11-20T11:09:56.744Z,72.70
2022-11-20T11:12:28.144Z,72.90
2022-11-20T11:14:58.915Z,73.00
2022-11-20T11:17:34.162Z,73.40
2022-11-20T11:20:17.956Z,74.10
2022-11-20T11:22:49.041Z,74.50
2022-11-20T11:25:24.278Z,74.60
2022-11-20T11:27:52.675Z,74.00
2022-11-20T11:30:21.223Z,74.10
2022-11-20T11:32:48.586Z,74.10
2022-11-20T11:35:34.741Z,74.50
2022-11-20T11:38:16.334Z,75.10
2022-11-20T11:40:44.564Z,75.40
2022-11-20T11:43:44.126Z,75.60
2022-11-20T11:46:31.512Z,75.40
2022-11-20T11:49:04.528Z,75.00
2022-11-20T11:51:50.573Z,75.70
2022-11-20T11:54:23.603Z,75.00
2022-11-20T11:56:51.888Z,75.10
2022-11-20T11:59:52.839Z,75.40
2022-11-20T12:02:45.978Z,75.70
2022-11-20T12:05:28.912Z,76.60
2022-11-20T12:08:23.757Z,77.00
2022-11-20T12:11:07.339Z,77.80
2022-11-20T12:13:34.580Z,78.00
2022-11-20T12:16:05.689Z,79.00
2022-11-20T12:18:34.989Z,79.70
2022-11-20T12:21:21.109Z,80.20
2022-11-20T12:24:08.069Z,81.00
2022-11-20T12:26:47.051Z,81.70
2022-11-20T12:29:33.096Z,82.30
2022-11-20T12:32:07.576Z,82.30
2022-11-20T12:34:43.864Z,81.90
2022-11-20T12:37:48.603Z,81.90
2022-11-20T12:40:42.524Z,82.00
2022-11-20T12:43:31.048Z,83.40
2022-11-20T12:46:09.473Z,84.00
2022-11-20T12:48:46.267Z,84.00
2022-11-20T12:51:16.636Z,84.10
2022-11-20T12:54:08.595Z,84.10
2022-11-20T12:56:48.155Z,84.10
2022-11-20T12:59:15.226Z,84.80
2022-11-20T13:01:51.366Z,85.20
2022-11-20T13:04:36.757Z,85.30
2022-11-20T13:07:07.843Z,85.20
2022-11-20T13:09:40.566Z,85.60
2022-11-20T13:12:16.896Z,85.40
2022-11-20T13:15:01.693Z,85.90
2022-11-20T13:17:48.530Z,85.90
2022-11-20T13:20:18.440Z,86.20
2022-11-20T13:22:48.136Z,86.70
2022-11-20T13:25:31.583Z,87.20
2022-11-20T13:28:01.904Z,87.70
2022-11-20T13:30:30.866Z,88.00
2022-11-20T13:33:34.720Z,88.20
2022-11-20T13:36:06.306Z,88.30
2022-11-20T13:38:49.424Z,88.10
2022-11-20T13:41:40.319Z,88.10
2022-11-20T13:44:25.157Z,88.50
2022-11-20T13:46:52.569Z,89.00
2022-11-20T13:49:24.731Z,89.40
2022-11-20T13:51:58.736Z,89.20
2022-11-20T13:55:22.747Z,89.10
2022-11-20T13:58:29.525Z,88.80
2022-11-20T14:01:01.930Z,89.50
2022-11-20T14:04:04.130Z,89.80
2022-11-20T14:06:33.783Z,89.90
2022-11-20T14:09:01.320Z,90.00
2022-11-20T14:11:32.276Z,90.00
2022-11-20T14:14:13.974Z,89.80
2022-11-20T14:16:41.159Z,90.10
2022-11-20T14:19:20.415Z,90.00
2022-11-20T14:21:55.509Z,90.00
2022-11-20T14:24:26.050Z,89.80
2022-11-20T14:26:53.879Z,89.60
2022-11-20T14:29:29.531Z,89.40
2022-11-20T14:31:58.139Z,89.40
2022-11-20T14:34:34.266Z,89.60
2022-11-20T14:37:06.576Z,90.10
2022-11-20T14:39:36.548Z,90.20
2022-11-20T14:42:18.327Z,90.20
2022-11-20T14:44:46.350Z,90.30
2022-11-20T14:47:16.439Z,90.50
2022-11-20T14:49:44.281Z,90.20
2022-11-20T14:52:16.404Z,90.70
2022-11-20T14:54:54.862Z,91.40
2022-11-20T14:57:31.003Z,90.90
2022-11-20T15:00:18.399Z,90.80
2022-11-20T15:02:47.793Z,90.80
2022-11-20T15:05:16.667Z,90.90
2022-11-20T15:07:47.352Z,91.00
2022-11-20T15:10:25.058Z,90.90
2022-11-20T15:13:00.923Z,91.00
2022-11-20T15:15:33.583Z,91.10
2022-11-20T15:18:01.257Z,91.10
2022-11-20T15:20:32.311Z,91.20
2022-11-20T15:22:59.613Z,91.30
2022-11-20T15:25:26.871Z,91.20
2022-11-20T15:27:57.325Z,91.20
2022-11-20T15:30:25.006Z,91.40
2022-11-20T15:32:52.537Z,91.50
2022-11-20T15:35:19.806Z,91.50
2022-11-20T15:37:46.990Z,91.40
2022-11-20T15:40:14.336Z,91.40
2022-11-20T15:43:01.503Z,91.40
2022-11-20T15:45:35.495Z,91.40
2022-11-20T15:48:03.001Z,91.80
2022-11-20T15:50:45.971Z,91.40
2022-11-20T15:53:13.120Z,91.30
2022-11-20T15:55:40.272Z,91.20
2022-11-20T15:58:07.397Z,91.20
2022-11-20T16:00:34.517Z,91.10
2022-11-20T16:03:01.661Z,91.20
2022-11-20T16:05:30.034Z,91.30
2022-11-20T16:07:57.528Z,91.30
2022-11-20T16:10:24.860Z,91.30
2022-11-20T16:13:10.751Z,91.30
2022-11-20T16:15:47.068Z,91.50
2022-11-20T16:18:19.224Z,91.60
2022-11-20T16:20:48.867Z,91.40
2022-11-20T16:23:16.436Z,91.40
2022-11-20T16:25:44.333Z,91.30
2022-11-20T16:28:17.453Z,91.30
2022-11-20T16:30:46.099Z,91.30
2022-11-20T16:33:15.597Z,91.40
2022-11-20T16:35:42.809Z,91.50
2022-11-20T16:38:10.335Z,91.50
2022-11-20T16:40:37.599Z,91.70
2022-11-20T16:43:10.445Z,91.60
2022-11-20T16:45:42.386Z,91.50
2022-11-20T16:48:13.738Z,91.50
2022-11-20T16:50:52.316Z,91.60
2022-11-20T16:53:21.287Z,91.60
2022-11-20T16:55:48.736Z,91.60
2022-11-20T16:58:16.657Z,91.60
2022-11-20T17:00:50.067Z,91.80
2022-11-20T17:03:18.849Z,91.90
2022-11-20T17:05:46.185Z,91.90
2022-11-20T17:08:13.325Z,92.00
2022-11-20T17:10:40.540Z,92.10
2022-11-20T17:13:07.840Z,92.20
2022-11-20T17:15:34.938Z,92.20
2022-11-20T17:18:03.481Z,92.20
2022-11-20T17:20:32.257Z,92.20
2022-11-20T17:22:59.688Z,92.20
2022-11-20T17:25:26.937Z,92.20
2022-11-20T17:27:54.733Z,92.20
2022-11-20T17:30:21.864Z,91.90
2022-11-20T17:32:48.987Z,91.90
2022-11-20T17:35:16.140Z,91.70
2022-11-20T17:37:43.246Z,91.70
2022-11-20T17:40:10.691Z,91.90
2022-11-20T17:42:37.896Z,91.70
2022-11-20T17:45:05.501Z,91.50
2022-11-20T17:47:36.104Z,91.60
2022-11-20T17:50:04.560Z,91.80
2022-11-20T17:52:31.741Z,91.60
2022-11-20T17:54:58.848Z,91.60
2022-11-20T17:57:44.467Z,91.60
2022-11-20T18:00:13.089Z,91.80
2022-11-20T18:02:40.272Z,91.80
2022-11-20T18:05:07.841Z,91.70
2022-11-20T18:07:41.342Z,91.70
2022-11-20T18:10:09.353Z,91.60
2022-11-20T18:12:36.481Z,91.70
2022-11-20T18:15:03.991Z,91.80
2022-11-20T18:17:31.235Z,91.60
2022-11-20T18:20:27.147Z,91.50
2022-11-20T18:22:45.519Z,91.60
2022-11-20T18:25:12.688Z,91.70
2022-11-20T18:27:39.910Z,91.80
2022-11-20T18:30:07.639Z,91.70
2022-11-20T18:32:35.896Z,91.80
2022-11-20T18:35:03.624Z,91.80
2022-11-20T18:37:32.051Z,91.90
2022-11-20T18:39:59.319Z,91.30
2022-11-20T18:42:45.385Z,91.70
2022-11-20T18:45:12.612Z,91.70
2022-11-20T18:47:40.056Z,91.70
2022-11-20T18:50:09.584Z,91.40
2022-11-20T18:52:44.639Z,91.70
2022-11-20T18:55:12.827Z,91.60
2022-11-20T18:57:40.384Z,91.70
2022-11-20T19:00:09.757Z,91.80
2022-11-20T19:05:25.104Z,91.80
2022-11-20T19:07:52.398Z,91.60
2022-11-20T19:10:20.455Z,91.60
2022-11-20T19:12:47.619Z,91.90
2022-11-20T19:15:14.823Z,91.90
2022-11-20T19:17:42.041Z,91.90
2022-11-20T19:20:09.680Z,91.90
2022-11-20T19:22:36.811Z,91.90
2022-11-20T19:25:04.406Z,91.80
2022-11-20T19:27:31.606Z,91.60
2022-11-20T19:30:03.008Z,91.50
2022-11-20T19:32:30.930Z,91.60
2022-11-20T19:34:58.119Z,91.60
2022-11-20T19:37:25.399Z,91.50
2022-11-20T19:39:52.687Z,91.50
2022-11-20T19:42:19.880Z,91.50
2022-11-20T19:44:47.084Z,91.50
2022-11-20T19:47:14.854Z,91.50
2022-11-20T19:49:42.325Z,91.40
2022-11-20T19:52:09.497Z,91.40
2022-11-20T19:54:37.508Z,91.50
2022-11-20T19:57:04.660Z,91.60
2022-11-20T19:59:31.875Z,91.70
2022-11-20T20:01:59.174Z,91.50
2022-11-20T20:04:26.976Z,91.50
2022-11-20T20:06:54.114Z,91.50
2022-11-20T20:09:23.646Z,91.10
2022-11-20T20:11:52.820Z,91.40
2022-11-20T20:14:20.014Z,91.30
2022-11-20T20:16:47.679Z,91.10
2022-11-20T20:19:15.741Z,91.30
2022-11-20T20:21:44.003Z,91.40
2022-11-20T20:24:11.984Z,91.30
2022-11-20T20:26:39.510Z,91.30
2022-11-20T20:29:06.716Z,91.20
2022-11-20T20:31:34.771Z,91.40
2022-11-20T20:34:05.111Z,91.50
2022-11-20T20:36:32.390Z,91.50
2022-11-20T20:38:59.723Z,91.40
2022-11-20T20:41:27.081Z,91.30
2022-11-20T20:44:13.263Z,91.30
2022-11-20T20:46:41.140Z,91.20
2022-11-20T20:49:08.703Z,91.20
2022-11-20T20:51:36.712Z,91.30
2022-11-20T20:54:04.415Z,91.30
2022-11-20T20:56:31.737Z,91.30
2022-11-20T20:58:58.927Z,91.30
2022-11-20T21:01:28.594Z,91.30
2022-11-20T21:03:56.833Z,91.10
2022-11-20T21:06:24.498Z,91.00
2022-11-20T21:08:52.189Z,91.00
2022-11-20T21:11:20.325Z,91.00
2022-11-20T21:13:48.891Z,91.00
2022-11-20T21:16:18.098Z,91.00
2022-11-20T21:18:45.491Z,91.00
2022-11-20T21:21:32.860Z,91.00
2022-11-20T21:24:00.481Z,91.00
2022-11-20T21:26:27.723Z,91.00
2022-11-20T21:28:56.672Z,91.00
2022-11-20T21:31:26.518Z,91.00
2022-11-20T21:33:55.335Z,90.90
2022-11-20T21:36:28.278Z,90.90
2022-11-20T21:38:56.751Z,90.80
2022-11-20T21:41:26.387Z,90.70
2022-11-20T21:44:29.590Z,90.60
2022-11-20T21:46:44.215Z,90.50
2022-11-20T21:49:12.314Z,90.60
2022-11-20T21:51:39.851Z,90.50
2022-11-20T21:54:07.176Z,90.50
2022-11-20T21:56:34.326Z,90.50
2022-11-20T21:59:03.548Z,90.10
2022-11-20T22:01:31.433Z,90.40
2022-11-20T22:04:01.236Z,90.50
2022-11-20T22:06:33.568Z,90.40
2022-11-20T22:09:01.887Z,90.00
2022-11-20T22:11:29.061Z,90.30
2022-11-20T22:14:14.737Z,90.20
2022-11-20T22:16:41.899Z,90.10
2022-11-20T22:19:09.187Z,90.20
2022-11-20T22:21:39.277Z,90.20
2022-11-20T22:24:06.628Z,90.20
2022-11-20T22:26:39.892Z,90.20
2022-11-20T22:29:08.605Z,90.20
2022-11-20T22:31:35.766Z,90.30
2022-11-20T22:34:03.189Z,90.20
2022-11-20T22:36:31.752Z,90.20
2022-11-20T22:39:01.782Z,90.20
2022-11-20T22:41:29.756Z,90.10
2022-11-20T22:44:02.244Z,90.00
2022-11-20T22:46:32.238Z,90.00
2022-11-20T22:49:01.580Z,90.10
2022-11-20T22:51:33.997Z,89.90
2022-11-20T22:54:01.261Z,90.00
2022-11-20T22:56:28.675Z,90.00
2022-11-20T22:58:56.142Z,89.40
2022-11-20T23:01:30.479Z,89.80
2022-11-20T23:04:03.205Z,89.60
2022-11-20T23:06:34.002Z,89.70
2022-11-20T23:09:05.279Z,90.10
2022-11-20T23:11:33.407Z,90.20
2022-11-20T23:14:07.283Z,90.20
2022-11-20T23:16:35.300Z,90.10
2022-11-20T23:19:07.825Z,90.00
2022-11-20T23:21:37.094Z,90.10
2022-11-20T23:24:04.908Z,90.10
2022-11-20T23:26:35.074Z,90.00
2022-11-20T23:29:03.166Z,90.00
2022-11-20T23:31:32.076Z,90.00
2022-11-20T23:33:59.744Z,90.00
2022-11-20T23:36:27.142Z,90.00
2022-11-20T23:38:54.309Z,89.50
2022-11-20T23:41:21.430Z,90.20
2022-11-20T23:43:48.596Z,90.20
2022-11-20T23:46:16.939Z,90.10
2022-11-20T23:48:45.317Z,90.00
2022-11-20T23:51:13.664Z,90.10
2022-11-20T23:53:41.197Z,90.00
2022-11-20T23:56:08.494Z,89.30
2022-11-20T23:58:37.802Z,89.50
